RYR1VR LFML-LEPA
Flight info
| Callsign | RYR1VR |
|---|---|
| Flight time | 0h 52m |
| Altitude | 31000 |
| Route | VATIR6S VATIR N852 VERSO L129 LUNIK LUNIK3P |
| Aircraft | B38M/M-SDE1FGHILORVWXY/HB1 |
Departure
| Time | 2026-05-04 11:46 |
|---|---|
| Airport | Marseille Provence Airport (LFML) |
Arrival
| Time | 2026-05-04 12:38 |
|---|---|
| Airport | Palma de Mallorca Airport (LEPA) |
| Time | Latitude | Longitude | Altitude | Speed | Heading |
|---|---|---|---|---|---|
| 2026-05-04 11:13 | 43.44164 | 5.21765 | 38 ft | 0 kts | 89° |
| 2026-05-04 11:16 | 43.44164 | 5.21764 | 38 ft | 0 kts | 89° |
| 2026-05-04 11:29 | 43.44164 | 5.21763 | 40 ft | 0 kts | 89° |
| 2026-05-04 11:36 | 43.44164 | 5.21764 | 40 ft | 0 kts | 91° |
| 2026-05-04 11:37 | 43.44162 | 5.21776 | 40 ft | 2 kts | 104° |
| 2026-05-04 11:37 | 43.44151 | 5.21797 | 39 ft | 3 kts | 136° |
| 2026-05-04 11:37 | 43.44126 | 5.21807 | 40 ft | 4 kts | 177° |
| 2026-05-04 11:37 | 43.44099 | 5.21789 | 37 ft | 5 kts | 219° |
| 2026-05-04 11:38 | 43.44070 | 5.21751 | 40 ft | 6 kts | 224° |
| 2026-05-04 11:38 | 43.44056 | 5.21734 | 40 ft | 0 kts | 221° |
| 2026-05-04 11:38 | 43.44049 | 5.21726 | 40 ft | 2 kts | 221° |
| 2026-05-04 11:38 | 43.44032 | 5.21704 | 40 ft | 4 kts | 221° |
| 2026-05-04 11:39 | 43.44004 | 5.21669 | 40 ft | 6 kts | 226° |
| 2026-05-04 11:39 | 43.43968 | 5.21621 | 40 ft | 8 kts | 221° |
| 2026-05-04 11:40 | 43.43919 | 5.21545 | 40 ft | 2 kts | 243° |
| 2026-05-04 11:41 | 43.43915 | 5.21517 | 40 ft | 4 kts | 278° |
| 2026-05-04 11:41 | 43.43930 | 5.21476 | 38 ft | 7 kts | 306° |
| 2026-05-04 11:41 | 43.43989 | 5.21391 | 40 ft | 17 kts | 315° |
| 2026-05-04 11:41 | 43.44054 | 5.21299 | 39 ft | 11 kts | 313° |
| 2026-05-04 11:42 | 43.44112 | 5.21217 | 39 ft | 13 kts | 313° |
| 2026-05-04 11:42 | 43.44176 | 5.21122 | 39 ft | 15 kts | 314° |
| 2026-05-04 11:42 | 43.44248 | 5.21013 | 39 ft | 16 kts | 309° |
| 2026-05-04 11:42 | 43.44315 | 5.20875 | 38 ft | 18 kts | 304° |
| 2026-05-04 11:43 | 43.44400 | 5.20736 | 40 ft | 20 kts | 313° |
| 2026-05-04 11:43 | 43.44489 | 5.20611 | 40 ft | 17 kts | 317° |
| 2026-05-04 11:43 | 43.44571 | 5.20496 | 40 ft | 17 kts | 310° |
| 2026-05-04 11:43 | 43.44654 | 5.20373 | 40 ft | 18 kts | 316° |
| 2026-05-04 11:44 | 43.44749 | 5.20240 | 39 ft | 20 kts | 313° |
| 2026-05-04 11:44 | 43.44851 | 5.20096 | 39 ft | 22 kts | 314° |
| 2026-05-04 11:44 | 43.44945 | 5.19962 | 39 ft | 16 kts | 313° |
| 2026-05-04 11:44 | 43.44977 | 5.19879 | 39 ft | 0 kts | 272° |
| 2026-05-04 11:45 | 43.44976 | 5.19860 | 39 ft | 6 kts | 264° |
| 2026-05-04 11:45 | 43.44929 | 5.19790 | 39 ft | 14 kts | 193° |
| 2026-05-04 11:45 | 43.44830 | 5.19853 | 37 ft | 22 kts | 139° |
| 2026-05-04 11:45 | 43.44586 | 5.20201 | 38 ft | 86 kts | 133° |
| 2026-05-04 11:46 | 43.44018 | 5.21009 | 38 ft | 147 kts | 133° |
| 2026-05-04 11:46 | 43.43252 | 5.22125 | 488 ft | 165 kts | 134° |
| 2026-05-04 11:46 | 43.42435 | 5.23277 | 1273 ft | 168 kts | 133° |
| 2026-05-04 11:46 | 43.41567 | 5.24285 | 2235 ft | 165 kts | 146° |
| 2026-05-04 11:47 | 43.40440 | 5.25060 | 2662 ft | 195 kts | 149° |
| 2026-05-04 11:47 | 43.39197 | 5.26021 | 3229 ft | 218 kts | 148° |
| 2026-05-04 11:47 | 43.37846 | 5.27082 | 3948 ft | 231 kts | 150° |
| 2026-05-04 11:47 | 43.36444 | 5.28210 | 4917 ft | 235 kts | 152° |
| 2026-05-04 11:48 | 43.34898 | 5.29055 | 5587 ft | 249 kts | 175° |
| 2026-05-04 11:48 | 43.33199 | 5.28616 | 6375 ft | 255 kts | 210° |
| 2026-05-04 11:48 | 43.31955 | 5.26853 | 7209 ft | 264 kts | 236° |
| 2026-05-04 11:48 | 43.31091 | 5.24679 | 8409 ft | 252 kts | 239° |
| 2026-05-04 11:49 | 43.30203 | 5.22567 | 9111 ft | 265 kts | 236° |
| 2026-05-04 11:49 | 43.29230 | 5.20420 | 10057 ft | 262 kts | 234° |
| 2026-05-04 11:49 | 43.28219 | 5.18273 | 10663 ft | 276 kts | 233° |
| 2026-05-04 11:49 | 43.27119 | 5.15989 | 11050 ft | 297 kts | 234° |
| 2026-05-04 11:50 | 43.25933 | 5.13555 | 11581 ft | 312 kts | 233° |
| 2026-05-04 11:50 | 43.24696 | 5.11041 | 12215 ft | 322 kts | 233° |
| 2026-05-04 11:50 | 43.23440 | 5.08505 | 13147 ft | 321 kts | 233° |
| 2026-05-04 11:50 | 43.22170 | 5.05950 | 13846 ft | 327 kts | 234° |
| 2026-05-04 11:51 | 43.20879 | 5.03361 | 14510 ft | 332 kts | 233° |
| 2026-05-04 11:51 | 43.19431 | 5.00886 | 15253 ft | 332 kts | 229° |
| 2026-05-04 11:51 | 43.17974 | 4.98463 | 15967 ft | 335 kts | 229° |
| 2026-05-04 11:51 | 43.16491 | 4.95979 | 16630 ft | 340 kts | 229° |
| 2026-05-04 11:52 | 43.14989 | 4.93452 | 17295 ft | 343 kts | 230° |
| 2026-05-04 11:52 | 43.13474 | 4.90899 | 17982 ft | 346 kts | 230° |
| 2026-05-04 11:52 | 43.11949 | 4.88329 | 18589 ft | 350 kts | 230° |
| 2026-05-04 11:52 | 43.10404 | 4.85726 | 19117 ft | 353 kts | 230° |
| 2026-05-04 11:53 | 43.08852 | 4.83113 | 19721 ft | 355 kts | 230° |
| 2026-05-04 11:53 | 43.07288 | 4.80483 | 20312 ft | 357 kts | 231° |
| 2026-05-04 11:53 | 43.05613 | 4.77995 | 20873 ft | 359 kts | 219° |
| 2026-05-04 11:53 | 43.03480 | 4.76189 | 21469 ft | 361 kts | 212° |
| 2026-05-04 11:55 | 42.87740 | 4.64141 | 24927 ft | 377 kts | 212° |
| 2026-05-04 11:55 | 42.85469 | 4.62426 | 25361 ft | 379 kts | 212° |
| 2026-05-04 11:56 | 42.83162 | 4.60685 | 25792 ft | 380 kts | 212° |
| 2026-05-04 11:56 | 42.80843 | 4.58937 | 26220 ft | 382 kts | 212° |
| 2026-05-04 11:56 | 42.78513 | 4.57182 | 26633 ft | 384 kts | 212° |
| 2026-05-04 11:56 | 42.76166 | 4.55416 | 27051 ft | 385 kts | 212° |
| 2026-05-04 11:57 | 42.73810 | 4.53644 | 27441 ft | 387 kts | 212° |
| 2026-05-04 11:57 | 42.71440 | 4.51864 | 27840 ft | 389 kts | 212° |
| 2026-05-04 11:57 | 42.69065 | 4.50081 | 28234 ft | 391 kts | 212° |
| 2026-05-04 11:57 | 42.66679 | 4.48292 | 28611 ft | 392 kts | 212° |
| 2026-05-04 11:58 | 42.64288 | 4.46500 | 28973 ft | 394 kts | 212° |
| 2026-05-04 11:58 | 42.61877 | 4.44695 | 29342 ft | 396 kts | 212° |
| 2026-05-04 11:58 | 42.59461 | 4.42889 | 29802 ft | 395 kts | 212° |
| 2026-05-04 11:58 | 42.57092 | 4.41119 | 30262 ft | 393 kts | 212° |
| 2026-05-04 11:59 | 42.54697 | 4.39330 | 30675 ft | 392 kts | 212° |
| 2026-05-04 11:59 | 42.52310 | 4.37549 | 30940 ft | 393 kts | 212° |
| 2026-05-04 11:59 | 42.49923 | 4.35771 | 30976 ft | 387 kts | 212° |
| 2026-05-04 12:00 | 42.45218 | 4.32269 | 30983 ft | 385 kts | 212° |
| 2026-05-04 12:00 | 42.40553 | 4.28802 | 30980 ft | 385 kts | 212° |
| 2026-05-04 12:01 | 42.35846 | 4.25312 | 30978 ft | 385 kts | 212° |
| 2026-05-04 12:02 | 42.24904 | 4.17218 | 30982 ft | 382 kts | 212° |
| 2026-05-04 12:03 | 42.14688 | 4.09691 | 30970 ft | 382 kts | 212° |
| 2026-05-04 12:03 | 42.10002 | 4.06249 | 30974 ft | 383 kts | 212° |
| 2026-05-04 12:04 | 42.05328 | 4.02821 | 30970 ft | 383 kts | 212° |
| 2026-05-04 12:04 | 42.00671 | 3.99411 | 30970 ft | 383 kts | 212° |
| 2026-05-04 12:05 | 41.96000 | 3.95997 | 30965 ft | 383 kts | 212° |
| 2026-05-04 12:05 | 41.91108 | 3.93164 | 30943 ft | 391 kts | 195° |
| 2026-05-04 12:06 | 41.85722 | 3.91859 | 30964 ft | 393 kts | 196° |
| 2026-05-04 12:06 | 41.80329 | 3.90580 | 30965 ft | 394 kts | 195° |
| 2026-05-04 12:07 | 41.75843 | 3.89541 | 30978 ft | 394 kts | 195° |
| 2026-05-04 12:07 | 41.70456 | 3.88301 | 30958 ft | 393 kts | 195° |
| 2026-05-04 12:08 | 41.65053 | 3.87059 | 30968 ft | 394 kts | 195° |
| 2026-05-04 12:08 | 41.59652 | 3.85819 | 30971 ft | 393 kts | 195° |
| 2026-05-04 12:09 | 41.54252 | 3.84579 | 30966 ft | 393 kts | 195° |
| 2026-05-04 12:09 | 41.48889 | 3.83349 | 30956 ft | 393 kts | 195° |
| 2026-05-04 12:10 | 41.43501 | 3.82116 | 30973 ft | 394 kts | 195° |
| 2026-05-04 12:10 | 41.38089 | 3.80880 | 30984 ft | 394 kts | 195° |
| 2026-05-04 12:11 | 41.32774 | 3.79669 | 30964 ft | 372 kts | 195° |
| 2026-05-04 12:11 | 41.30278 | 3.79100 | 30947 ft | 357 kts | 196° |
| 2026-05-04 12:11 | 41.27862 | 3.78549 | 30663 ft | 350 kts | 196° |
| 2026-05-04 12:12 | 41.25497 | 3.78011 | 30219 ft | 348 kts | 195° |
| 2026-05-04 12:12 | 41.23092 | 3.77464 | 29722 ft | 346 kts | 195° |
| 2026-05-04 12:12 | 41.20754 | 3.76933 | 29250 ft | 344 kts | 195° |
| 2026-05-04 12:12 | 41.18406 | 3.76400 | 28815 ft | 340 kts | 195° |
| 2026-05-04 12:13 | 41.16082 | 3.75869 | 28392 ft | 337 kts | 197° |
| 2026-05-04 12:14 | 41.00714 | 3.68174 | 25411 ft | 339 kts | 205° |
| 2026-05-04 12:15 | 40.98528 | 3.67050 | 25000 ft | 338 kts | 205° |
| 2026-05-04 12:15 | 40.96338 | 3.65925 | 24585 ft | 337 kts | 205° |
| 2026-05-04 12:15 | 40.94155 | 3.64804 | 24171 ft | 336 kts | 205° |
| 2026-05-04 12:15 | 40.91992 | 3.63694 | 23764 ft | 330 kts | 205° |
| 2026-05-04 12:16 | 40.89865 | 3.62603 | 23343 ft | 323 kts | 205° |
| 2026-05-04 12:16 | 40.87822 | 3.61556 | 22930 ft | 315 kts | 205° |
| 2026-05-04 12:16 | 40.85757 | 3.60498 | 22552 ft | 322 kts | 205° |
| 2026-05-04 12:16 | 40.83652 | 3.59421 | 22130 ft | 326 kts | 205° |
| 2026-05-04 12:17 | 40.81524 | 3.58333 | 21783 ft | 329 kts | 205° |
| 2026-05-04 12:17 | 40.79381 | 3.57238 | 21407 ft | 329 kts | 205° |
| 2026-05-04 12:17 | 40.77260 | 3.56154 | 21038 ft | 327 kts | 205° |
| 2026-05-04 12:17 | 40.75136 | 3.55070 | 20670 ft | 326 kts | 205° |
| 2026-05-04 12:18 | 40.73029 | 3.53996 | 20303 ft | 325 kts | 205° |
| 2026-05-04 12:18 | 40.70921 | 3.52921 | 19944 ft | 324 kts | 205° |
| 2026-05-04 12:18 | 40.68823 | 3.51853 | 19588 ft | 323 kts | 204° |
| 2026-05-04 12:18 | 40.66734 | 3.50790 | 19231 ft | 322 kts | 204° |
| 2026-05-04 12:19 | 40.64645 | 3.49727 | 18887 ft | 321 kts | 204° |
| 2026-05-04 12:19 | 40.62565 | 3.48670 | 18542 ft | 320 kts | 204° |
| 2026-05-04 12:19 | 40.60501 | 3.47621 | 18191 ft | 318 kts | 204° |
| 2026-05-04 12:19 | 40.58471 | 3.46591 | 17813 ft | 315 kts | 204° |
| 2026-05-04 12:20 | 40.56431 | 3.45557 | 17464 ft | 312 kts | 204° |
| 2026-05-04 12:20 | 40.54385 | 3.44519 | 17119 ft | 309 kts | 204° |
| 2026-05-04 12:20 | 40.52425 | 3.43526 | 16800 ft | 306 kts | 204° |
| 2026-05-04 12:20 | 40.50454 | 3.42528 | 16474 ft | 302 kts | 204° |
| 2026-05-04 12:21 | 40.48497 | 3.41538 | 16158 ft | 299 kts | 204° |
| 2026-05-04 12:21 | 40.46563 | 3.40559 | 15846 ft | 296 kts | 203° |
| 2026-05-04 12:21 | 40.44645 | 3.39590 | 15541 ft | 293 kts | 203° |
| 2026-05-04 12:21 | 40.42695 | 3.38747 | 15176 ft | 297 kts | 200° |
| 2026-05-04 12:22 | 40.40709 | 3.37924 | 14872 ft | 302 kts | 200° |
| 2026-05-04 12:22 | 40.38702 | 3.37085 | 14582 ft | 303 kts | 200° |
| 2026-05-04 12:22 | 40.36697 | 3.36242 | 14275 ft | 302 kts | 200° |
| 2026-05-04 12:22 | 40.34704 | 3.35404 | 13965 ft | 299 kts | 200° |
| 2026-05-04 12:23 | 40.32730 | 3.34572 | 13641 ft | 297 kts | 200° |
| 2026-05-04 12:23 | 40.30766 | 3.33745 | 13294 ft | 294 kts | 200° |
| 2026-05-04 12:23 | 40.28829 | 3.32930 | 12973 ft | 291 kts | 200° |
| 2026-05-04 12:23 | 40.26907 | 3.32121 | 12666 ft | 288 kts | 199° |
| 2026-05-04 12:24 | 40.25034 | 3.31333 | 12371 ft | 285 kts | 199° |
| 2026-05-04 12:24 | 40.23135 | 3.30535 | 12073 ft | 281 kts | 199° |
| 2026-05-04 12:24 | 40.21304 | 3.29766 | 11782 ft | 278 kts | 199° |
| 2026-05-04 12:24 | 40.19462 | 3.28992 | 11483 ft | 280 kts | 199° |
| 2026-05-04 12:25 | 40.17587 | 3.28206 | 11193 ft | 285 kts | 199° |
| 2026-05-04 12:25 | 40.15686 | 3.27409 | 10892 ft | 287 kts | 199° |
| 2026-05-04 12:25 | 40.13788 | 3.26614 | 10580 ft | 287 kts | 199° |
| 2026-05-04 12:25 | 40.11885 | 3.25817 | 10287 ft | 286 kts | 199° |
| 2026-05-04 12:26 | 40.09997 | 3.25026 | 10071 ft | 281 kts | 199° |
| 2026-05-04 12:26 | 40.08174 | 3.24264 | 9912 ft | 270 kts | 199° |
| 2026-05-04 12:26 | 40.06394 | 3.23519 | 9622 ft | 267 kts | 199° |
| 2026-05-04 12:26 | 40.04640 | 3.22786 | 9318 ft | 264 kts | 199° |
| 2026-05-04 12:27 | 40.02894 | 3.22057 | 9030 ft | 262 kts | 199° |
| 2026-05-04 12:27 | 40.01172 | 3.21338 | 8758 ft | 259 kts | 199° |
| 2026-05-04 12:27 | 39.99462 | 3.20625 | 8490 ft | 255 kts | 199° |
| 2026-05-04 12:27 | 39.97780 | 3.19923 | 8225 ft | 255 kts | 199° |
| 2026-05-04 12:28 | 39.96067 | 3.19209 | 7962 ft | 261 kts | 199° |
| 2026-05-04 12:28 | 39.94316 | 3.18480 | 7695 ft | 264 kts | 199° |
| 2026-05-04 12:28 | 39.92578 | 3.17756 | 7407 ft | 265 kts | 199° |
| 2026-05-04 12:28 | 39.90824 | 3.17027 | 7139 ft | 264 kts | 199° |
| 2026-05-04 12:29 | 39.89072 | 3.16298 | 6866 ft | 264 kts | 199° |
| 2026-05-04 12:29 | 39.87336 | 3.15577 | 6592 ft | 261 kts | 199° |
| 2026-05-04 12:29 | 39.85612 | 3.14860 | 6325 ft | 258 kts | 200° |
| 2026-05-04 12:29 | 39.83902 | 3.14150 | 6042 ft | 256 kts | 200° |
| 2026-05-04 12:30 | 39.82213 | 3.13449 | 5756 ft | 254 kts | 200° |
| 2026-05-04 12:30 | 39.80548 | 3.12758 | 5503 ft | 250 kts | 200° |
| 2026-05-04 12:30 | 39.78897 | 3.12074 | 5243 ft | 247 kts | 200° |
| 2026-05-04 12:30 | 39.77268 | 3.11399 | 4993 ft | 244 kts | 200° |
| 2026-05-04 12:31 | 39.75645 | 3.10727 | 4774 ft | 245 kts | 200° |
| 2026-05-04 12:31 | 39.74081 | 3.10080 | 4679 ft | 227 kts | 200° |
| 2026-05-04 12:31 | 39.72627 | 3.09479 | 4591 ft | 210 kts | 200° |
| 2026-05-04 12:31 | 39.71342 | 3.08772 | 4504 ft | 198 kts | 219° |
| 2026-05-04 12:32 | 39.70451 | 3.07429 | 4393 ft | 196 kts | 235° |
| 2026-05-04 12:32 | 39.68939 | 3.04465 | 4164 ft | 197 kts | 236° |
| 2026-05-04 12:32 | 39.68206 | 3.02970 | 4055 ft | 195 kts | 237° |
| 2026-05-04 12:33 | 39.67503 | 3.01512 | 3938 ft | 193 kts | 237° |
| 2026-05-04 12:33 | 39.66797 | 3.00034 | 3807 ft | 194 kts | 238° |
| 2026-05-04 12:33 | 39.65513 | 2.97326 | 3572 ft | 193 kts | 238° |
| 2026-05-04 12:34 | 39.64822 | 2.95862 | 3374 ft | 195 kts | 239° |
| 2026-05-04 12:34 | 39.64113 | 2.94356 | 3155 ft | 191 kts | 238° |
| 2026-05-04 12:34 | 39.63441 | 2.92931 | 2918 ft | 186 kts | 238° |
| 2026-05-04 12:34 | 39.62783 | 2.91532 | 2696 ft | 179 kts | 238° |
| 2026-05-04 12:35 | 39.62146 | 2.90179 | 2471 ft | 173 kts | 237° |
| 2026-05-04 12:35 | 39.61520 | 2.88851 | 2256 ft | 172 kts | 237° |
| 2026-05-04 12:35 | 39.60903 | 2.87540 | 2019 ft | 168 kts | 236° |
| 2026-05-04 12:35 | 39.60312 | 2.86286 | 1830 ft | 158 kts | 237° |
| 2026-05-04 12:36 | 39.59755 | 2.85104 | 1626 ft | 149 kts | 237° |
| 2026-05-04 12:36 | 39.59220 | 2.83964 | 1373 ft | 150 kts | 237° |
| 2026-05-04 12:36 | 39.58679 | 2.82819 | 1248 ft | 146 kts | 237° |
| 2026-05-04 12:36 | 39.58178 | 2.81732 | 1160 ft | 137 kts | 238° |
| 2026-05-04 12:37 | 39.57690 | 2.80709 | 1007 ft | 130 kts | 235° |
| 2026-05-04 12:37 | 39.57186 | 2.79665 | 713 ft | 141 kts | 238° |
| 2026-05-04 12:37 | 39.56691 | 2.78605 | 562 ft | 134 kts | 236° |
| 2026-05-04 12:37 | 39.56208 | 2.77585 | 335 ft | 132 kts | 236° |
| 2026-05-04 12:38 | 39.55727 | 2.76560 | 147 ft | 133 kts | 238° |
| 2026-05-04 12:38 | 39.55259 | 2.75559 | 34 ft | 122 kts | 238° |
| 2026-05-04 12:38 | 39.54886 | 2.74779 | 32 ft | 73 kts | 238° |
| 2026-05-04 12:38 | 39.54699 | 2.74382 | 32 ft | 40 kts | 238° |
| 2026-05-04 12:39 | 39.54588 | 2.74131 | 32 ft | 26 kts | 248° |
| 2026-05-04 12:39 | 39.54551 | 2.73906 | 32 ft | 23 kts | 268° |
| 2026-05-04 12:39 | 39.54555 | 2.73764 | 32 ft | 10 kts | 296° |
| 2026-05-04 12:39 | 39.54588 | 2.73739 | 32 ft | 4 kts | 4° |
| 2026-05-04 12:40 | 39.54635 | 2.73795 | 32 ft | 14 kts | 57° |
| 2026-05-04 12:40 | 39.54693 | 2.73921 | 32 ft | 18 kts | 60° |
| 2026-05-04 12:40 | 39.54758 | 2.74059 | 32 ft | 14 kts | 58° |
| 2026-05-04 12:40 | 39.54825 | 2.74122 | 32 ft | 13 kts | 353° |
| 2026-05-04 12:41 | 39.54911 | 2.74062 | 32 ft | 15 kts | 329° |
| 2026-05-04 12:41 | 39.55008 | 2.73986 | 32 ft | 17 kts | 328° |
| 2026-05-04 12:41 | 39.55117 | 2.73901 | 32 ft | 19 kts | 328° |
| 2026-05-04 12:41 | 39.55179 | 2.73836 | 32 ft | 9 kts | 286° |
| 2026-05-04 12:42 | 39.55172 | 2.73758 | 32 ft | 6 kts | 289° |
| 2026-05-04 12:42 | 39.55182 | 2.73704 | 32 ft | 7 kts | 260° |
| 2026-05-04 12:42 | 39.55152 | 2.73630 | 32 ft | 11 kts | 239° |
| 2026-05-04 12:42 | 39.55112 | 2.73547 | 32 ft | 7 kts | 237° |
| 2026-05-04 12:43 | 39.55087 | 2.73529 | 32 ft | 4 kts | 181° |
| 2026-05-04 12:43 | 39.55061 | 2.73535 | 32 ft | 3 kts | 164° |
| 2026-05-04 12:43 | 39.55053 | 2.73538 | 32 ft | 1 kts | 164° |
| 2026-05-04 12:43 | 39.55052 | 2.73539 | 32 ft | 0 kts | 163° |
| 2026-05-04 12:44 | 39.55053 | 2.73539 | 32 ft | 0 kts | 163° |